createdAt,value
2023-04-03T00:00:55.849Z,1024.98
2023-04-03T00:01:55.938Z,1025.00
2023-04-03T00:02:55.879Z,1025.00
2023-04-03T00:03:55.925Z,1024.94
2023-04-03T00:04:55.782Z,1024.99
2023-04-03T00:05:55.792Z,1025.02
2023-04-03T00:06:55.774Z,1024.96
2023-04-03T00:07:55.801Z,1025.02
2023-04-03T00:08:55.741Z,1025.05
2023-04-03T00:09:55.737Z,1024.99
2023-04-03T00:10:55.713Z,1024.96
2023-04-03T00:11:55.692Z,1024.97
2023-04-03T00:12:55.689Z,1025.03
2023-04-03T00:13:55.707Z,1024.95
2023-04-03T00:14:55.664Z,1025.00
2023-04-03T00:15:55.634Z,1024.94
2023-04-03T00:16:55.658Z,1025.01
2023-04-03T00:17:55.670Z,1024.99
2023-04-03T00:18:55.636Z,1024.93
2023-04-03T00:19:55.607Z,1025.00
2023-04-03T00:20:55.615Z,1024.94
2023-04-03T00:21:55.582Z,1025.00
2023-04-03T00:22:55.557Z,1024.97
2023-04-03T00:23:55.562Z,1025.00
2023-04-03T00:24:55.518Z,1024.99
2023-04-03T00:25:55.540Z,1025.07
2023-04-03T00:26:55.525Z,1024.98
2023-04-03T00:27:55.517Z,1025.03
2023-04-03T00:28:55.547Z,1025.00
2023-04-03T00:29:55.472Z,1024.99
2023-04-03T00:31:10.157Z,1024.98
2023-04-03T00:31:55.454Z,1025.06
2023-04-03T00:32:55.455Z,1024.98
2023-04-03T00:33:55.485Z,1025.02
2023-04-03T00:34:55.391Z,1025.08
2023-04-03T00:35:55.457Z,1025.06
2023-04-03T00:36:55.498Z,1025.03
2023-04-03T00:37:55.368Z,1025.07
2023-04-03T00:38:55.387Z,1025.04
2023-04-03T00:39:55.374Z,1024.99
2023-04-03T00:40:55.315Z,1025.07
2023-04-03T00:41:55.330Z,1025.00
2023-04-03T00:42:55.301Z,1025.12
2023-04-03T00:43:55.326Z,1025.01
2023-04-03T00:44:55.264Z,1025.02
2023-04-03T00:45:55.295Z,1025.10
2023-04-03T00:46:55.236Z,1025.11
2023-04-03T00:47:55.262Z,1025.07
2023-04-03T00:48:55.218Z,1025.10
2023-04-03T00:49:55.242Z,1025.10
2023-04-03T00:50:55.194Z,1025.11
2023-04-03T00:51:55.190Z,1025.09
2023-04-03T00:52:55.161Z,1025.07
2023-04-03T00:53:55.194Z,1025.10
2023-04-03T00:54:55.136Z,1025.07
2023-04-03T00:55:55.167Z,1025.08
2023-04-03T00:56:55.153Z,1025.10
2023-04-03T00:57:55.121Z,1025.09
2023-04-03T00:58:55.090Z,1025.06
2023-04-03T00:59:55.092Z,1025.10
2023-04-03T01:00:55.087Z,1025.08
2023-04-03T01:01:55.115Z,1025.10
2023-04-03T01:02:55.135Z,1025.06
2023-04-03T01:03:55.066Z,1025.06
2023-04-03T01:04:55.026Z,1025.11
2023-04-03T01:05:55.043Z,1025.10
2023-04-03T01:06:54.984Z,1025.11
2023-04-03T01:07:54.995Z,1025.12
2023-04-03T01:08:54.990Z,1025.04
2023-04-03T01:09:55.002Z,1025.09
2023-04-03T01:10:54.960Z,1025.12
2023-04-03T01:11:54.961Z,1025.13
2023-04-03T01:12:54.943Z,1025.11
2023-04-03T01:13:54.951Z,1025.12
2023-04-03T01:14:54.941Z,1025.07
2023-04-03T01:15:55.057Z,1025.08
2023-04-03T01:16:54.906Z,1025.09
2023-04-03T01:17:54.941Z,1025.07
2023-04-03T01:18:54.874Z,1025.10
2023-04-03T01:19:54.867Z,1025.11
2023-04-03T01:20:54.866Z,1025.07
2023-04-03T01:21:54.844Z,1025.04
2023-04-03T01:22:54.828Z,1025.10
2023-04-03T01:23:54.806Z,1025.04
2023-04-03T01:24:54.778Z,1025.09
2023-04-03T01:25:54.771Z,1025.10
2023-04-03T01:26:54.767Z,1025.12
2023-04-03T01:27:54.789Z,1025.12
2023-04-03T01:28:54.758Z,1025.14
2023-04-03T01:29:54.725Z,1025.17
2023-04-03T01:30:54.723Z,1025.17
2023-04-03T01:31:54.752Z,1025.17
2023-04-03T01:32:54.748Z,1025.15
2023-04-03T01:33:54.701Z,1025.13
2023-04-03T01:34:54.701Z,1025.22
2023-04-03T01:35:54.705Z,1025.21
2023-04-03T01:36:54.679Z,1025.18
2023-04-03T01:37:54.620Z,1025.15
2023-04-03T01:38:54.605Z,1025.18
2023-04-03T01:39:54.580Z,1025.21
2023-04-03T01:40:54.640Z,1025.23
2023-04-03T01:41:54.612Z,1025.21
2023-04-03T01:42:54.602Z,1025.20
2023-04-03T01:43:54.569Z,1025.16
2023-04-03T01:44:54.533Z,1025.23
2023-04-03T01:45:54.575Z,1025.18
2023-04-03T01:46:54.500Z,1025.20
2023-04-03T01:47:54.521Z,1025.29
2023-04-03T01:48:54.518Z,1025.29
2023-04-03T01:49:54.479Z,1025.27
2023-04-03T01:50:54.464Z,1025.29
2023-04-03T01:51:54.456Z,1025.28
2023-04-03T01:52:54.416Z,1025.27
2023-04-03T01:53:54.443Z,1025.29
2023-04-03T01:54:54.435Z,1025.31
2023-04-03T01:55:54.368Z,1025.28
2023-04-03T01:56:54.488Z,1025.29
2023-04-03T01:57:54.369Z,1025.32
2023-04-03T01:58:54.371Z,1025.26
2023-04-03T01:59:54.348Z,1025.28
2023-04-03T02:00:54.595Z,1025.34
2023-04-03T02:01:54.353Z,1025.26
2023-04-03T02:02:54.319Z,1025.29
2023-04-03T02:03:54.314Z,1025.32
2023-04-03T02:04:54.292Z,1025.35
2023-04-03T02:05:54.287Z,1025.32
2023-04-03T02:06:54.313Z,1025.35
2023-04-03T02:07:54.277Z,1025.30
2023-04-03T02:08:54.261Z,1025.30
2023-04-03T02:09:54.228Z,1025.37
2023-04-03T02:10:54.265Z,1025.38
2023-04-03T02:11:54.216Z,1025.38
2023-04-03T02:12:54.189Z,1025.34
2023-04-03T02:13:54.253Z,1025.37
2023-04-03T02:14:54.149Z,1025.38
2023-04-03T02:15:54.188Z,1025.35
2023-04-03T02:16:54.271Z,1025.39
2023-04-03T02:17:54.192Z,1025.31
2023-04-03T02:18:54.144Z,1025.34
2023-04-03T02:19:54.114Z,1025.37
2023-04-03T02:20:54.098Z,1025.39
2023-04-03T02:21:54.101Z,1025.32
2023-04-03T02:22:54.079Z,1025.32
2023-04-03T02:23:54.064Z,1025.41
2023-04-03T02:24:54.076Z,1025.33
2023-04-03T02:25:54.038Z,1025.42
2023-04-03T02:26:54.018Z,1025.44
2023-04-03T02:27:53.992Z,1025.47
2023-04-03T02:28:54.013Z,1025.46
2023-04-03T02:29:54.014Z,1025.41
2023-04-03T02:30:54.037Z,1025.49
2023-04-03T02:31:53.948Z,1025.49
2023-04-03T02:32:53.936Z,1025.49
2023-04-03T02:33:53.935Z,1025.49
2023-04-03T02:34:53.898Z,1025.49
2023-04-03T02:35:53.901Z,1025.59
2023-04-03T02:36:53.892Z,1025.56
2023-04-03T02:37:53.845Z,1025.54
2023-04-03T02:38:53.826Z,1025.58
2023-04-03T02:39:53.821Z,1025.58
2023-04-03T02:40:53.811Z,1025.63
2023-04-03T02:41:53.867Z,1025.54
2023-04-03T02:42:53.779Z,1025.60
2023-04-03T02:43:53.776Z,1025.65
2023-04-03T02:44:53.766Z,1025.62
2023-04-03T02:45:53.769Z,1025.64
2023-04-03T02:46:53.730Z,1025.68
2023-04-03T02:47:53.716Z,1025.62
2023-04-03T02:48:53.701Z,1025.69
2023-04-03T02:49:53.689Z,1025.69
2023-04-03T02:50:53.720Z,1025.71
2023-04-03T02:51:53.674Z,1025.73
2023-04-03T02:52:53.660Z,1025.74
2023-04-03T02:53:53.651Z,1025.75
2023-04-03T02:54:53.682Z,1025.76
2023-04-03T02:55:53.622Z,1025.73
2023-04-03T02:56:53.638Z,1025.72
2023-04-03T02:57:53.607Z,1025.76
2023-04-03T02:58:53.584Z,1025.76
2023-04-03T02:59:53.555Z,1025.75
2023-04-03T03:00:53.564Z,1025.74
2023-04-03T03:01:53.576Z,1025.71
2023-04-03T03:02:53.650Z,1025.76
2023-04-03T03:03:53.514Z,1025.80
2023-04-03T03:04:53.518Z,1025.76
2023-04-03T03:05:53.497Z,1025.80
2023-04-03T03:06:53.523Z,1025.78
2023-04-03T03:07:53.471Z,1025.85
2023-04-03T03:08:53.453Z,1025.83
2023-04-03T03:09:53.460Z,1025.85
2023-04-03T03:10:53.478Z,1025.81
2023-04-03T03:11:53.424Z,1025.76
2023-04-03T03:12:53.410Z,1025.83
2023-04-03T03:13:53.404Z,1025.76
2023-04-03T03:14:53.379Z,1025.87
2023-04-03T03:15:53.448Z,1025.85
2023-04-03T03:16:53.350Z,1025.86
2023-04-03T03:17:53.417Z,1025.89
2023-04-03T03:18:53.318Z,1025.81
2023-04-03T03:19:53.341Z,1025.90
2023-04-03T03:20:53.305Z,1025.83
2023-04-03T03:21:53.285Z,1025.88
2023-04-03T03:22:53.296Z,1025.85
2023-04-03T03:23:53.284Z,1025.90
2023-04-03T03:24:53.240Z,1025.86
2023-04-03T03:25:53.233Z,1025.90
2023-04-03T03:26:53.236Z,1025.89
2023-04-03T03:27:53.281Z,1025.84
2023-04-03T03:28:53.250Z,1025.88
2023-04-03T03:29:53.184Z,1025.90
2023-04-03T03:30:53.177Z,1025.87
2023-04-03T03:31:53.211Z,1025.92
2023-04-03T03:32:53.192Z,1025.89
2023-04-03T03:33:53.143Z,1025.94
2023-04-03T03:34:53.152Z,1025.96
2023-04-03T03:35:53.160Z,1025.93
2023-04-03T03:36:53.085Z,1025.97
2023-04-03T03:37:53.065Z,1026.00
2023-04-03T03:38:53.073Z,1025.97
2023-04-03T03:39:53.084Z,1026.01
2023-04-03T03:40:53.058Z,1025.94
2023-04-03T03:41:53.030Z,1025.96
2023-04-03T03:42:53.007Z,1025.96
2023-04-03T03:43:53.013Z,1025.95
2023-04-03T03:44:53.003Z,1025.95
2023-04-03T03:45:53.021Z,1025.96
2023-04-03T03:46:53.016Z,1025.94
2023-04-03T03:47:53.013Z,1025.94
2023-04-03T03:48:52.980Z,1026.00
2023-04-03T03:49:52.959Z,1025.96
2023-04-03T03:50:52.989Z,1025.99
2023-04-03T03:51:52.963Z,1025.99
2023-04-03T03:52:52.901Z,1026.00
2023-04-03T03:53:52.882Z,1025.97
2023-04-03T03:54:52.902Z,1025.97
2023-04-03T03:55:52.904Z,1025.98
2023-04-03T03:56:52.910Z,1026.04
2023-04-03T03:57:52.836Z,1026.00
2023-04-03T03:58:52.826Z,1026.01
2023-04-03T03:59:52.843Z,1025.98
2023-04-03T04:00:52.819Z,1025.91
2023-04-03T04:01:52.868Z,1025.99
2023-04-03T04:02:52.858Z,1025.96
2023-04-03T04:03:52.964Z,1025.96
2023-04-03T04:04:52.791Z,1025.91
2023-04-03T04:05:52.765Z,1025.94
2023-04-03T04:06:52.749Z,1025.87
2023-04-03T04:07:52.682Z,1025.94
2023-04-03T04:08:52.704Z,1025.96
2023-04-03T04:09:52.700Z,1025.98
2023-04-03T04:10:52.692Z,1025.94
2023-04-03T04:11:52.687Z,1025.96
2023-04-03T04:12:52.702Z,1025.92
2023-04-03T04:13:52.641Z,1026.01
2023-04-03T04:14:52.658Z,1025.96
2023-04-03T04:15:52.612Z,1025.99
2023-04-03T04:16:52.684Z,1025.98
2023-04-03T04:17:52.625Z,1025.97
2023-04-03T04:18:52.578Z,1026.00
2023-04-03T04:19:52.582Z,1025.97
2023-04-03T04:20:52.562Z,1025.99
2023-04-03T04:21:52.569Z,1026.03
2023-04-03T04:22:52.512Z,1025.98
2023-04-03T04:23:52.494Z,1025.94
2023-04-03T04:24:52.532Z,1025.96
2023-04-03T04:25:52.506Z,1026.01
2023-04-03T04:26:52.476Z,1026.00
2023-04-03T04:27:52.462Z,1025.98
2023-04-03T04:28:52.441Z,1025.97
2023-04-03T04:29:52.450Z,1025.99
2023-04-03T04:30:52.509Z,1025.99
2023-04-03T04:31:52.411Z,1025.98
2023-04-03T04:32:52.456Z,1026.03
2023-04-03T04:33:52.366Z,1026.04
2023-04-03T04:34:52.475Z,1026.01
2023-04-03T04:35:52.441Z,1026.02
2023-04-03T04:36:52.447Z,1026.01
2023-04-03T04:37:52.377Z,1026.00
2023-04-03T04:38:52.314Z,1026.04
2023-04-03T04:39:52.344Z,1026.03
2023-04-03T04:40:52.310Z,1026.07
2023-04-03T04:41:52.297Z,1026.04
2023-04-03T04:42:52.288Z,1026.08
2023-04-03T04:43:52.289Z,1026.01
2023-04-03T04:44:52.264Z,1026.00
2023-04-03T04:45:52.249Z,1026.04
2023-04-03T04:46:52.238Z,1026.05
2023-04-03T04:47:52.244Z,1026.03
2023-04-03T04:48:52.227Z,1026.08
2023-04-03T04:49:52.226Z,1026.03
2023-04-03T04:50:52.188Z,1026.12
2023-04-03T04:51:52.613Z,1026.11
2023-04-03T04:52:52.133Z,1026.19
2023-04-03T04:53:53.520Z,1026.15
2023-04-03T04:54:52.144Z,1026.15
2023-04-03T04:55:52.153Z,1026.19
2023-04-03T04:56:52.149Z,1026.21
2023-04-03T04:57:52.123Z,1026.25
2023-04-03T04:58:52.153Z,1026.23
2023-04-03T04:59:52.071Z,1026.24
2023-04-03T05:00:52.058Z,1026.20
2023-04-03T05:01:52.030Z,1026.24
2023-04-03T05:02:52.074Z,1026.23
2023-04-03T05:03:52.009Z,1026.25
2023-04-03T05:04:52.003Z,1026.27
2023-04-03T05:05:51.967Z,1026.28
2023-04-03T05:06:51.991Z,1026.32
2023-04-03T05:07:51.942Z,1026.25
2023-04-03T05:08:52.003Z,1026.26
2023-04-03T05:09:51.918Z,1026.25
2023-04-03T05:10:53.653Z,1026.28
2023-04-03T05:11:51.931Z,1026.30
2023-04-03T05:12:51.899Z,1026.26
2023-04-03T05:13:51.859Z,1026.33
2023-04-03T05:14:51.912Z,1026.35
2023-04-03T05:15:51.932Z,1026.34
2023-04-03T05:16:52.704Z,1026.28
2023-04-03T05:17:51.886Z,1026.28
2023-04-03T05:18:51.817Z,1026.28
2023-04-03T05:19:51.805Z,1026.28
2023-04-03T05:20:51.824Z,1026.30
2023-04-03T05:21:51.797Z,1026.29
2023-04-03T05:22:51.756Z,1026.25
2023-04-03T05:23:51.747Z,1026.23
2023-04-03T05:24:51.754Z,1026.26
2023-04-03T05:25:51.751Z,1026.26
2023-04-03T05:26:51.710Z,1026.31
2023-04-03T05:27:51.683Z,1026.32
2023-04-03T05:28:51.692Z,1026.24
2023-04-03T05:29:51.689Z,1026.32
2023-04-03T05:30:51.669Z,1026.33
2023-04-03T05:31:51.755Z,1026.31
2023-04-03T05:32:51.773Z,1026.40
2023-04-03T05:33:51.730Z,1026.40
2023-04-03T05:35:47.689Z,1026.39
2023-04-03T05:36:47.590Z,1026.34
2023-04-03T05:37:47.566Z,1026.33
2023-04-03T05:38:47.584Z,1026.40
2023-04-03T05:39:47.550Z,1026.34
2023-04-03T05:40:47.537Z,1026.35
2023-04-03T05:41:47.517Z,1026.39
2023-04-03T05:42:47.486Z,1026.42
2023-04-03T05:43:47.499Z,1026.45
2023-04-03T05:44:47.473Z,1026.45
2023-04-03T05:45:47.530Z,1026.43
2023-04-03T05:46:47.442Z,1026.44
2023-04-03T05:47:47.474Z,1026.45
2023-04-03T05:48:47.437Z,1026.49
2023-04-03T05:49:47.416Z,1026.47
2023-04-03T05:50:47.395Z,1026.53
2023-04-03T05:51:47.394Z,1026.50
2023-04-03T05:52:47.377Z,1026.52
2023-04-03T05:53:47.376Z,1026.48
2023-04-03T05:54:47.350Z,1026.55
2023-04-03T05:55:47.348Z,1026.52
2023-04-03T05:56:47.317Z,1026.58
2023-04-03T05:57:47.312Z,1026.59
2023-04-03T05:58:47.318Z,1026.55
2023-04-03T05:59:47.312Z,1026.52
2023-04-03T06:00:47.263Z,1026.59
2023-04-03T06:01:47.319Z,1026.61
2023-04-03T06:02:47.432Z,1026.58
2023-04-03T06:03:47.407Z,1026.62
2023-04-03T06:04:47.410Z,1026.57
2023-04-03T06:05:47.209Z,1026.59
2023-04-03T06:06:47.214Z,1026.60
2023-04-03T06:07:47.189Z,1026.58
2023-04-03T06:08:47.191Z,1026.64
2023-04-03T06:09:47.181Z,1026.62
2023-04-03T06:10:47.154Z,1026.60
2023-04-03T06:11:47.142Z,1026.59
2023-04-03T06:12:47.119Z,1026.60
2023-04-03T06:13:47.122Z,1026.64
2023-04-03T06:14:47.082Z,1026.67
2023-04-03T06:15:47.087Z,1026.61
2023-04-03T06:16:47.106Z,1026.63
2023-04-03T06:17:47.086Z,1026.74
2023-04-03T06:18:47.073Z,1026.67
2023-04-03T06:19:47.051Z,1026.61
2023-04-03T06:20:47.346Z,1026.68
2023-04-03T06:21:47.009Z,1026.65
2023-04-03T06:22:47.013Z,1026.63
2023-04-03T06:23:47.009Z,1026.62
2023-04-03T06:24:46.983Z,1026.67
2023-04-03T06:25:46.979Z,1026.69
2023-04-03T06:26:47.017Z,1026.62
2023-04-03T06:27:46.939Z,1026.67
2023-04-03T06:28:46.923Z,1026.73
2023-04-03T06:29:46.905Z,1026.75
2023-04-03T06:30:46.993Z,1026.73
2023-04-03T06:31:46.902Z,1026.74
2023-04-03T06:32:46.895Z,1026.72
2023-04-03T06:33:46.845Z,1026.73
2023-04-03T06:34:46.845Z,1026.70
2023-04-03T06:35:46.959Z,1026.66
2023-04-03T06:36:46.830Z,1026.66
2023-04-03T06:37:46.935Z,1026.68
2023-04-03T06:38:46.798Z,1026.64
2023-04-03T06:39:46.782Z,1026.68
2023-04-03T06:40:46.774Z,1026.60
2023-04-03T06:41:46.759Z,1026.61
2023-04-03T06:42:46.748Z,1026.64
2023-04-03T06:43:46.725Z,1026.63
2023-04-03T06:44:46.717Z,1026.68
2023-04-03T06:45:46.728Z,1026.67
2023-04-03T06:46:46.767Z,1026.70
2023-04-03T06:47:46.764Z,1026.73
2023-04-03T06:48:46.743Z,1026.74
2023-04-03T06:49:46.683Z,1026.78
2023-04-03T06:50:46.698Z,1026.77
2023-04-03T06:51:46.698Z,1026.78
2023-04-03T06:52:46.617Z,1026.81
2023-04-03T06:53:46.601Z,1026.83
2023-04-03T06:54:46.587Z,1026.81
2023-04-03T06:55:46.564Z,1026.83
2023-04-03T06:56:46.570Z,1026.85
2023-04-03T06:57:46.578Z,1026.81
2023-04-03T06:58:47.002Z,1026.87
2023-04-03T06:59:46.550Z,1026.81
2023-04-03T07:00:46.671Z,1026.79
2023-04-03T07:01:46.522Z,1026.88
2023-04-03T07:02:46.714Z,1026.87
2023-04-03T07:03:46.483Z,1026.91
2023-04-03T07:04:46.536Z,1026.97
2023-04-03T07:05:46.469Z,1026.92
2023-04-03T07:06:46.441Z,1026.92
2023-04-03T07:07:46.412Z,1026.98
2023-04-03T07:08:46.414Z,1026.92
2023-04-03T07:09:46.404Z,1026.99
2023-04-03T07:10:46.381Z,1027.00
2023-04-03T07:11:46.359Z,1026.92
2023-04-03T07:12:46.373Z,1026.97
2023-04-03T07:13:46.364Z,1026.95
2023-04-03T07:14:46.683Z,1027.02
2023-04-03T07:15:46.335Z,1027.04
2023-04-03T07:16:46.420Z,1027.04
2023-04-03T07:17:46.325Z,1027.07
2023-04-03T07:18:46.344Z,1027.10
2023-04-03T07:19:46.328Z,1027.14
2023-04-03T07:20:46.258Z,1027.10
2023-04-03T07:21:46.258Z,1027.17
2023-04-03T07:22:46.227Z,1027.17
2023-04-03T07:23:46.272Z,1027.09
2023-04-03T07:24:46.210Z,1027.11
2023-04-03T07:25:46.187Z,1027.08
2023-04-03T07:26:46.284Z,1027.14
2023-04-03T07:27:46.253Z,1027.14
2023-04-03T07:28:46.165Z,1027.13
2023-04-03T07:29:46.148Z,1027.17
2023-04-03T07:30:46.171Z,1027.19
2023-04-03T07:31:46.139Z,1027.23
2023-04-03T07:32:46.212Z,1027.15
2023-04-03T07:33:46.183Z,1027.19
2023-04-03T07:34:46.086Z,1027.14
2023-04-03T07:35:46.109Z,1027.11
2023-04-03T07:36:46.075Z,1027.15
2023-04-03T07:37:46.054Z,1027.15
2023-04-03T07:38:46.039Z,1027.15
2023-04-03T07:39:46.080Z,1027.19
2023-04-03T07:40:46.016Z,1027.12
2023-04-03T07:41:46.007Z,1027.17
2023-04-03T07:42:45.988Z,1027.12
2023-04-03T07:43:46.004Z,1027.14
2023-04-03T07:44:45.967Z,1027.14
2023-04-03T07:45:45.994Z,1027.14
2023-04-03T07:46:45.942Z,1027.18
2023-04-03T07:47:45.960Z,1027.12
2023-04-03T07:48:45.902Z,1027.13
2023-04-03T07:49:45.880Z,1027.15
2023-04-03T07:50:45.945Z,1027.15
2023-04-03T07:51:45.860Z,1027.13
2023-04-03T07:52:45.837Z,1027.14
2023-04-03T07:53:45.910Z,1027.13
2023-04-03T07:54:45.831Z,1027.21
2023-04-03T07:55:45.828Z,1027.19
2023-04-03T07:56:45.790Z,1027.22
2023-04-03T07:57:45.788Z,1027.20
2023-04-03T07:58:45.762Z,1027.19
2023-04-03T07:59:45.814Z,1027.18
2023-04-03T08:00:45.756Z,1027.19
2023-04-03T08:01:45.754Z,1027.23
2023-04-03T08:02:45.823Z,1027.18
2023-04-03T08:03:45.915Z,1027.16
2023-04-03T08:04:45.758Z,1027.15
2023-04-03T08:05:45.691Z,1027.16
2023-04-03T08:06:47.141Z,1027.15
2023-04-03T08:07:45.652Z,1027.12
2023-04-03T08:08:45.649Z,1027.17
2023-04-03T08:09:45.641Z,1027.20
2023-04-03T08:10:45.620Z,1027.12
2023-04-03T08:11:45.696Z,1027.20
2023-04-03T08:12:45.613Z,1027.17
2023-04-03T08:13:45.594Z,1027.24
2023-04-03T08:14:45.564Z,1027.32
2023-04-03T08:15:45.548Z,1027.19
2023-04-03T08:16:45.602Z,1027.23
2023-04-03T08:17:45.594Z,1027.19
2023-04-03T08:18:45.530Z,1027.31
2023-04-03T08:19:45.507Z,1027.22
2023-04-03T08:20:45.503Z,1027.32
2023-04-03T08:21:45.490Z,1027.33
2023-04-03T08:22:45.489Z,1027.28
2023-04-03T08:23:45.453Z,1027.23
2023-04-03T08:24:56.310Z,1027.20
2023-04-03T08:25:46.433Z,1027.21
2023-04-03T08:26:45.453Z,1027.20
2023-04-03T08:27:45.447Z,1027.20
2023-04-03T08:28:45.405Z,1027.24
2023-04-03T08:29:45.392Z,1027.19
2023-04-03T08:30:45.385Z,1027.16
2023-04-03T08:31:45.362Z,1027.25
2023-04-03T08:32:45.437Z,1027.16
2023-04-03T08:33:45.342Z,1027.17
2023-04-03T08:34:45.317Z,1027.15
2023-04-03T08:35:45.460Z,1027.24
2023-04-03T08:36:45.290Z,1027.17
2023-04-03T08:37:45.284Z,1027.10
2023-04-03T08:38:45.310Z,1027.09
2023-04-03T08:39:45.229Z,1027.07
2023-04-03T08:40:45.235Z,1027.02
2023-04-03T08:41:45.208Z,1027.00
2023-04-03T08:42:45.207Z,1027.03
2023-04-03T08:43:45.232Z,1027.02
2023-04-03T08:44:45.666Z,1027.06
2023-04-03T08:45:45.207Z,1026.95
2023-04-03T08:46:45.145Z,1027.03
2023-04-03T08:47:45.187Z,1026.92
2023-04-03T08:48:45.220Z,1027.03
2023-04-03T08:49:45.191Z,1026.96
2023-04-03T08:50:45.112Z,1026.97
2023-04-03T08:51:45.074Z,1026.98
2023-04-03T08:52:45.087Z,1027.00
2023-04-03T08:53:45.066Z,1026.87
2023-04-03T08:54:45.060Z,1026.91
2023-04-03T08:55:45.026Z,1026.95
2023-04-03T08:56:45.044Z,1026.96
2023-04-03T08:57:45.003Z,1026.94
2023-04-03T08:58:45.005Z,1026.91
2023-04-03T08:59:44.980Z,1026.88
2023-04-03T09:00:44.980Z,1026.88
2023-04-03T09:01:45.036Z,1027.07
2023-04-03T09:02:45.392Z,1026.87
2023-04-03T09:03:45.012Z,1026.94
2023-04-03T09:04:44.931Z,1026.97
2023-04-03T09:05:44.937Z,1026.93
2023-04-03T09:06:44.895Z,1026.94
2023-04-03T09:07:44.884Z,1026.94
2023-04-03T09:08:44.884Z,1026.89
2023-04-03T09:09:44.857Z,1027.00
2023-04-03T09:10:44.899Z,1026.85
2023-04-03T09:11:44.846Z,1026.91
2023-04-03T09:12:44.819Z,1026.94
2023-04-03T09:13:44.810Z,1026.97
2023-04-03T09:14:44.783Z,1026.88
2023-04-03T09:15:44.810Z,1026.85
2023-04-03T09:16:45.567Z,1026.91
2023-04-03T09:17:44.884Z,1026.92
2023-04-03T09:18:44.744Z,1027.03
2023-04-03T09:19:44.755Z,1026.95
2023-04-03T09:20:44.701Z,1026.91
2023-04-03T09:21:44.710Z,1027.01
2023-04-03T09:22:49.731Z,1026.93
2023-04-03T09:23:45.670Z,1026.98
2023-04-03T09:24:44.673Z,1026.92
2023-04-03T09:25:44.660Z,1026.95
2023-04-03T09:26:44.787Z,1027.00
2023-04-03T09:27:44.627Z,1026.98
2023-04-03T09:28:50.439Z,1026.97
2023-04-03T09:29:45.584Z,1026.97
2023-04-03T09:30:44.604Z,1027.03
2023-04-03T09:31:44.615Z,1026.97
2023-04-03T09:32:44.570Z,1026.98
2023-04-03T09:33:44.562Z,1026.94
2023-04-03T09:34:44.524Z,1026.99
2023-04-03T09:35:48.603Z,1027.00
2023-04-03T09:36:44.609Z,1026.97
2023-04-03T09:37:45.279Z,1027.01
2023-04-03T09:38:44.553Z,1027.02
2023-04-03T09:39:44.461Z,1027.03
2023-04-03T09:40:44.539Z,1027.04
2023-04-03T09:41:44.440Z,1026.98
2023-04-03T09:42:48.858Z,1027.01
2023-04-03T09:43:45.408Z,1027.02
2023-04-03T09:44:44.418Z,1027.01
2023-04-03T09:45:44.385Z,1027.01
2023-04-03T09:46:44.619Z,1026.99
2023-04-03T09:47:44.433Z,1027.02
2023-04-03T09:48:44.789Z,1027.00
2023-04-03T09:49:44.342Z,1027.06
2023-04-03T09:50:44.326Z,1027.04
2023-04-03T09:51:44.417Z,1027.05
2023-04-03T09:52:44.303Z,1027.07
2023-04-03T09:53:44.291Z,1027.02
2023-04-03T09:54:44.284Z,1027.04
2023-04-03T09:55:44.298Z,1027.02
2023-04-03T09:56:44.245Z,1027.01
2023-04-03T09:57:44.240Z,1027.00
2023-04-03T09:58:50.456Z,1027.06
2023-04-03T09:59:45.269Z,1026.99
2023-04-03T10:00:44.213Z,1027.03
2023-04-03T10:01:44.181Z,1027.00
2023-04-03T10:02:44.267Z,1026.93
2023-04-03T10:03:44.147Z,1026.88
2023-04-03T10:04:44.353Z,1026.88
2023-04-03T10:05:44.124Z,1026.89
2023-04-03T10:06:44.126Z,1026.82
2023-04-03T10:07:48.673Z,1026.85
2023-04-03T10:08:45.104Z,1026.82
2023-04-03T10:09:44.100Z,1026.81
2023-04-03T10:10:44.100Z,1026.80
2023-04-03T10:11:44.070Z,1026.70
2023-04-03T10:12:44.031Z,1026.64
2023-04-03T10:13:50.811Z,1026.64
2023-04-03T10:14:45.023Z,1026.69
2023-04-03T10:15:43.989Z,1026.76
2023-04-03T10:16:44.078Z,1026.80
2023-04-03T10:17:43.990Z,1026.78
2023-04-03T10:18:43.967Z,1026.78
2023-04-03T10:19:43.937Z,1026.74
2023-04-03T10:20:43.950Z,1026.72
2023-04-03T10:21:43.941Z,1026.72
2023-04-03T10:22:43.917Z,1026.78
2023-04-03T10:23:43.906Z,1026.69
2023-04-03T10:24:43.894Z,1026.76
2023-04-03T10:25:43.865Z,1026.65
2023-04-03T10:26:43.876Z,1026.72
2023-04-03T10:27:43.854Z,1026.70
2023-04-03T10:28:43.843Z,1026.73
2023-04-03T10:29:43.834Z,1026.70
2023-04-03T10:30:43.908Z,1026.73
2023-04-03T10:31:43.805Z,1026.69
2023-04-03T10:32:43.785Z,1026.67
2023-04-03T10:33:43.792Z,1026.64
2023-04-03T10:34:46.796Z,1026.64
2023-04-03T10:35:44.862Z,1026.64
2023-04-03T10:36:43.743Z,1026.60
2023-04-03T10:37:43.715Z,1026.53
2023-04-03T10:38:43.713Z,1026.47
2023-04-03T10:39:43.676Z,1026.50
2023-04-03T10:40:43.737Z,1026.51
2023-04-03T10:41:43.657Z,1026.58
2023-04-03T10:42:43.661Z,1026.58
2023-04-03T10:43:43.619Z,1026.54
2023-04-03T10:44:43.622Z,1026.56
2023-04-03T10:45:43.633Z,1026.48
2023-04-03T10:46:43.601Z,1026.53
2023-04-03T10:47:43.622Z,1026.53
2023-04-03T10:48:43.569Z,1026.56
2023-04-03T10:49:49.907Z,1026.56
2023-04-03T10:50:44.563Z,1026.55
2023-04-03T10:51:43.546Z,1026.58
2023-04-03T10:52:43.535Z,1026.60
2023-04-03T10:53:43.490Z,1026.62
2023-04-03T10:54:43.507Z,1026.50
2023-04-03T10:55:43.473Z,1026.57
2023-04-03T10:56:43.459Z,1026.62
2023-04-03T10:57:43.496Z,1026.64
2023-04-03T10:58:43.444Z,1026.61
2023-04-03T10:59:43.463Z,1026.68
2023-04-03T11:00:43.440Z,1026.55
2023-04-03T11:01:43.447Z,1026.58
2023-04-03T11:02:43.506Z,1026.52
2023-04-03T11:03:43.517Z,1026.56
2023-04-03T11:04:43.377Z,1026.52
2023-04-03T11:05:43.344Z,1026.54
2023-04-03T11:06:43.376Z,1026.56
2023-04-03T11:07:43.322Z,1026.51
2023-04-03T11:08:43.410Z,1026.50
2023-04-03T11:09:43.327Z,1026.47
2023-04-03T11:10:43.301Z,1026.50
2023-04-03T11:11:43.289Z,1026.43
2023-04-03T11:12:43.267Z,1026.49
2023-04-03T11:13:43.251Z,1026.52
2023-04-03T11:14:43.236Z,1026.53
2023-04-03T11:15:43.266Z,1026.52
2023-04-03T11:16:47.394Z,1026.49
2023-04-03T11:17:44.216Z,1026.52
2023-04-03T11:18:43.182Z,1026.50
2023-04-03T11:19:43.187Z,1026.54
2023-04-03T11:20:43.223Z,1026.51
2023-04-03T11:21:43.158Z,1026.54
2023-04-03T11:22:43.119Z,1026.41
2023-04-03T11:23:49.455Z,1026.43
2023-04-03T11:24:44.156Z,1026.42
2023-04-03T11:25:44.419Z,1026.38
2023-04-03T11:26:43.076Z,1026.40
2023-04-03T11:27:43.084Z,1026.33
2023-04-03T11:28:43.054Z,1026.37
2023-04-03T11:29:43.034Z,1026.25
2023-04-03T11:30:43.026Z,1026.35
2023-04-03T11:31:43.035Z,1026.28
2023-04-03T11:32:43.094Z,1026.30
2023-04-03T11:33:42.987Z,1026.27
2023-04-03T11:34:42.987Z,1026.28
2023-04-03T11:35:50.059Z,1026.26
2023-04-03T11:36:42.959Z,1026.30
2023-04-03T11:37:42.933Z,1026.28
2023-04-03T11:38:42.930Z,1026.29
2023-04-03T11:39:42.907Z,1026.28
2023-04-03T11:40:42.894Z,1026.26
2023-04-03T11:41:42.917Z,1026.24
2023-04-03T11:42:43.004Z,1026.19
2023-04-03T11:43:42.852Z,1026.22
2023-04-03T11:44:42.845Z,1026.17
2023-04-03T11:45:42.838Z,1026.15
2023-04-03T11:46:42.921Z,1026.17
2023-04-03T11:47:42.804Z,1026.17
2023-04-03T11:48:42.787Z,1026.12
2023-04-03T11:49:42.783Z,1026.13
2023-04-03T11:50:42.760Z,1026.16
2023-04-03T11:51:42.771Z,1026.12
2023-04-03T11:52:44.357Z,1026.10
2023-04-03T11:53:42.749Z,1026.10
2023-04-03T11:54:45.182Z,1026.13
2023-04-03T11:55:42.699Z,1026.11
2023-04-03T11:56:42.686Z,1026.16
2023-04-03T11:57:42.703Z,1026.27
2023-04-03T11:58:42.656Z,1026.21
2023-04-03T11:59:42.652Z,1026.21
2023-04-03T12:00:42.616Z,1026.16
2023-04-03T12:01:42.642Z,1026.21
2023-04-03T12:02:53.749Z,1026.18
2023-04-03T12:03:43.729Z,1026.17
2023-04-03T12:04:42.638Z,1026.17
2023-04-03T12:05:42.591Z,1026.18
2023-04-03T12:06:42.545Z,1026.18